sensor_id;sensor_type;location;lat;lon;timestamp;P1;durP1;ratioP1;P2;durP2;ratioP2
21233;SDS011;10774;42.178;26.578;2023-09-18T00:00:18;5.47;;;2.50;;
21233;SDS011;10774;42.178;26.578;2023-09-18T00:02:46;4.25;;;2.65;;
21233;SDS011;10774;42.178;26.578;2023-09-18T00:05:12;6.25;;;2.83;;
21233;SDS011;10774;42.178;26.578;2023-09-18T00:07:44;4.55;;;2.70;;
21233;SDS011;10774;42.178;26.578;2023-09-18T00:10:12;7.53;;;3.17;;
21233;SDS011;10774;42.178;26.578;2023-09-18T00:12:39;7.55;;;3.10;;
21233;SDS011;10774;42.178;26.578;2023-09-18T00:15:05;5.00;;;2.70;;
21233;SDS011;10774;42.178;26.578;2023-09-18T00:17:33;5.53;;;2.70;;
21233;SDS011;10774;42.178;26.578;2023-09-18T00:19:59;7.13;;;2.80;;
21233;SDS011;10774;42.178;26.578;2023-09-18T00:22:25;5.90;;;2.63;;
21233;SDS011;10774;42.178;26.578;2023-09-18T00:24:50;3.90;;;2.60;;
21233;SDS011;10774;42.178;26.578;2023-09-18T00:27:16;3.63;;;2.85;;
21233;SDS011;10774;42.178;26.578;2023-09-18T00:29:42;8.20;;;3.20;;
21233;SDS011;10774;42.178;26.578;2023-09-18T00:32:07;5.13;;;3.03;;
21233;SDS011;10774;42.178;26.578;2023-09-18T00:34:33;7.40;;;3.00;;
21233;SDS011;10774;42.178;26.578;2023-09-18T00:36:58;3.50;;;2.63;;
21233;SDS011;10774;42.178;26.578;2023-09-18T00:39:27;7.55;;;2.85;;
21233;SDS011;10774;42.178;26.578;2023-09-18T00:41:52;6.68;;;2.95;;
21233;SDS011;10774;42.178;26.578;2023-09-18T00:44:19;8.18;;;3.05;;
21233;SDS011;10774;42.178;26.578;2023-09-18T00:46:46;4.22;;;2.90;;
21233;SDS011;10774;42.178;26.578;2023-09-18T00:49:12;8.40;;;3.40;;
21233;SDS011;10774;42.178;26.578;2023-09-18T00:51:38;7.10;;;3.08;;
21233;SDS011;10774;42.178;26.578;2023-09-18T00:54:04;4.35;;;3.08;;
21233;SDS011;10774;42.178;26.578;2023-09-18T00:56:30;6.38;;;3.55;;
21233;SDS011;10774;42.178;26.578;2023-09-18T00:58:58;4.35;;;2.97;;
21233;SDS011;10774;42.178;26.578;2023-09-18T01:01:25;4.65;;;2.80;;
21233;SDS011;10774;42.178;26.578;2023-09-18T01:03:50;8.15;;;3.13;;
21233;SDS011;10774;42.178;26.578;2023-09-18T01:06:18;5.55;;;2.92;;
21233;SDS011;10774;42.178;26.578;2023-09-18T01:08:44;4.53;;;2.83;;
21233;SDS011;10774;42.178;26.578;2023-09-18T01:16:52;4.63;;;2.75;;
21233;SDS011;10774;42.178;26.578;2023-09-18T01:22:04;5.78;;;2.83;;
21233;SDS011;10774;42.178;26.578;2023-09-18T01:24:32;5.43;;;3.15;;
21233;SDS011;10774;42.178;26.578;2023-09-18T01:26:58;9.20;;;3.30;;
21233;SDS011;10774;42.178;26.578;2023-09-18T01:29:24;3.92;;;2.58;;
21233;SDS011;10774;42.178;26.578;2023-09-18T01:31:49;4.47;;;2.88;;
21233;SDS011;10774;42.178;26.578;2023-09-18T01:34:16;4.75;;;3.10;;
21233;SDS011;10774;42.178;26.578;2023-09-18T01:36:45;5.82;;;3.13;;
21233;SDS011;10774;42.178;26.578;2023-09-18T01:39:11;7.35;;;3.05;;
21233;SDS011;10774;42.178;26.578;2023-09-18T01:41:38;7.22;;;3.10;;
21233;SDS011;10774;42.178;26.578;2023-09-18T01:44:04;6.38;;;3.00;;
21233;SDS011;10774;42.178;26.578;2023-09-18T01:46:30;4.78;;;2.80;;
21233;SDS011;10774;42.178;26.578;2023-09-18T01:49:03;6.25;;;3.28;;
21233;SDS011;10774;42.178;26.578;2023-09-18T01:51:29;7.68;;;3.25;;
21233;SDS011;10774;42.178;26.578;2023-09-18T01:53:55;5.25;;;2.80;;
21233;SDS011;10774;42.178;26.578;2023-09-18T01:56:21;6.68;;;2.72;;
21233;SDS011;10774;42.178;26.578;2023-09-18T01:58:48;5.95;;;2.75;;
21233;SDS011;10774;42.178;26.578;2023-09-18T02:01:14;4.53;;;2.60;;
21233;SDS011;10774;42.178;26.578;2023-09-18T02:03:39;5.32;;;3.05;;
21233;SDS011;10774;42.178;26.578;2023-09-18T02:06:08;6.55;;;2.97;;
21233;SDS011;10774;42.178;26.578;2023-09-18T02:08:36;5.78;;;2.75;;
21233;SDS011;10774;42.178;26.578;2023-09-18T02:11:01;3.55;;;2.80;;
21233;SDS011;10774;42.178;26.578;2023-09-18T02:13:30;7.03;;;3.50;;
21233;SDS011;10774;42.178;26.578;2023-09-18T02:15:56;9.43;;;3.17;;
21233;SDS011;10774;42.178;26.578;2023-09-18T02:18:21;7.43;;;3.28;;
21233;SDS011;10774;42.178;26.578;2023-09-18T02:20:47;6.80;;;3.00;;
21233;SDS011;10774;42.178;26.578;2023-09-18T02:23:14;7.13;;;3.35;;
21233;SDS011;10774;42.178;26.578;2023-09-18T02:25:40;7.13;;;3.40;;
21233;SDS011;10774;42.178;26.578;2023-09-18T02:28:06;7.55;;;3.45;;
21233;SDS011;10774;42.178;26.578;2023-09-18T02:30:32;8.20;;;3.28;;
21233;SDS011;10774;42.178;26.578;2023-09-18T02:32:57;7.63;;;3.33;;
21233;SDS011;10774;42.178;26.578;2023-09-18T02:35:24;6.47;;;3.35;;
21233;SDS011;10774;42.178;26.578;2023-09-18T02:37:50;5.05;;;3.28;;
21233;SDS011;10774;42.178;26.578;2023-09-18T02:40:15;5.53;;;2.92;;
21233;SDS011;10774;42.178;26.578;2023-09-18T02:42:40;8.80;;;3.70;;
21233;SDS011;10774;42.178;26.578;2023-09-18T02:45:06;10.73;;;3.33;;
21233;SDS011;10774;42.178;26.578;2023-09-18T02:47:33;9.38;;;3.33;;
21233;SDS011;10774;42.178;26.578;2023-09-18T02:49:59;5.72;;;3.42;;
21233;SDS011;10774;42.178;26.578;2023-09-18T02:52:24;9.32;;;4.07;;
21233;SDS011;10774;42.178;26.578;2023-09-18T02:54:49;5.15;;;3.95;;
21233;SDS011;10774;42.178;26.578;2023-09-18T02:57:15;6.53;;;4.20;;
21233;SDS011;10774;42.178;26.578;2023-09-18T02:59:40;7.70;;;4.05;;
21233;SDS011;10774;42.178;26.578;2023-09-18T03:02:06;10.02;;;4.40;;
21233;SDS011;10774;42.178;26.578;2023-09-18T03:04:31;10.43;;;4.32;;
21233;SDS011;10774;42.178;26.578;2023-09-18T03:06:56;6.60;;;4.30;;
21233;SDS011;10774;42.178;26.578;2023-09-18T03:09:22;8.18;;;4.45;;
21233;SDS011;10774;42.178;26.578;2023-09-18T03:11:47;6.95;;;4.38;;
21233;SDS011;10774;42.178;26.578;2023-09-18T03:14:13;8.32;;;4.80;;
21233;SDS011;10774;42.178;26.578;2023-09-18T03:16:38;7.18;;;5.00;;
21233;SDS011;10774;42.178;26.578;2023-09-18T03:19:03;12.48;;;4.80;;
21233;SDS011;10774;42.178;26.578;2023-09-18T03:21:29;9.25;;;5.35;;
21233;SDS011;10774;42.178;26.578;2023-09-18T03:23:56;9.25;;;4.97;;
21233;SDS011;10774;42.178;26.578;2023-09-18T03:26:22;7.65;;;4.13;;
21233;SDS011;10774;42.178;26.578;2023-09-18T03:28:48;6.32;;;3.85;;
21233;SDS011;10774;42.178;26.578;2023-09-18T03:31:13;8.25;;;4.00;;
21233;SDS011;10774;42.178;26.578;2023-09-18T03:33:39;7.10;;;4.28;;
21233;SDS011;10774;42.178;26.578;2023-09-18T03:36:04;7.68;;;4.82;;
21233;SDS011;10774;42.178;26.578;2023-09-18T03:38:30;9.82;;;4.05;;
21233;SDS011;10774;42.178;26.578;2023-09-18T03:40:55;9.90;;;3.58;;
21233;SDS011;10774;42.178;26.578;2023-09-18T03:43:21;6.95;;;3.53;;
21233;SDS011;10774;42.178;26.578;2023-09-18T03:45:46;7.30;;;3.75;;
21233;SDS011;10774;42.178;26.578;2023-09-18T03:48:12;9.30;;;3.53;;
21233;SDS011;10774;42.178;26.578;2023-09-18T03:50:37;6.32;;;3.20;;
21233;SDS011;10774;42.178;26.578;2023-09-18T03:53:03;8.73;;;2.97;;
21233;SDS011;10774;42.178;26.578;2023-09-18T03:55:29;7.05;;;3.10;;
21233;SDS011;10774;42.178;26.578;2023-09-18T03:57:55;8.73;;;3.20;;
21233;SDS011;10774;42.178;26.578;2023-09-18T04:00:21;5.25;;;3.25;;
21233;SDS011;10774;42.178;26.578;2023-09-18T04:02:47;8.65;;;3.50;;
21233;SDS011;10774;42.178;26.578;2023-09-18T04:05:12;6.60;;;3.50;;
21233;SDS011;10774;42.178;26.578;2023-09-18T04:07:38;6.68;;;3.42;;
21233;SDS011;10774;42.178;26.578;2023-09-18T04:10:03;6.43;;;3.75;;
21233;SDS011;10774;42.178;26.578;2023-09-18T04:12:33;7.63;;;4.22;;
21233;SDS011;10774;42.178;26.578;2023-09-18T04:14:59;9.27;;;3.60;;
21233;SDS011;10774;42.178;26.578;2023-09-18T04:17:24;6.13;;;3.85;;
21233;SDS011;10774;42.178;26.578;2023-09-18T04:19:50;9.63;;;4.40;;
21233;SDS011;10774;42.178;26.578;2023-09-18T04:22:15;6.80;;;4.43;;
21233;SDS011;10774;42.178;26.578;2023-09-18T04:24:41;12.50;;;4.43;;
21233;SDS011;10774;42.178;26.578;2023-09-18T04:27:06;7.63;;;4.22;;
21233;SDS011;10774;42.178;26.578;2023-09-18T04:29:32;12.35;;;4.13;;
21233;SDS011;10774;42.178;26.578;2023-09-18T04:31:57;8.27;;;4.00;;
21233;SDS011;10774;42.178;26.578;2023-09-18T04:34:23;11.63;;;8.32;;
21233;SDS011;10774;42.178;26.578;2023-09-18T04:36:48;19.45;;;7.38;;
21233;SDS011;10774;42.178;26.578;2023-09-18T04:39:14;18.08;;;4.88;;
21233;SDS011;10774;42.178;26.578;2023-09-18T04:41:39;13.95;;;4.65;;
21233;SDS011;10774;42.178;26.578;2023-09-18T04:44:05;9.88;;;4.13;;
21233;SDS011;10774;42.178;26.578;2023-09-18T04:46:30;11.63;;;5.00;;
21233;SDS011;10774;42.178;26.578;2023-09-18T04:48:56;8.38;;;4.70;;
21233;SDS011;10774;42.178;26.578;2023-09-18T04:51:21;14.15;;;5.00;;
21233;SDS011;10774;42.178;26.578;2023-09-18T04:53:46;15.25;;;4.97;;
21233;SDS011;10774;42.178;26.578;2023-09-18T04:56:12;17.20;;;5.38;;
21233;SDS011;10774;42.178;26.578;2023-09-18T04:58:38;16.77;;;5.38;;
21233;SDS011;10774;42.178;26.578;2023-09-18T05:01:04;18.85;;;5.30;;
21233;SDS011;10774;42.178;26.578;2023-09-18T05:03:32;21.25;;;5.50;;
21233;SDS011;10774;42.178;26.578;2023-09-18T05:06:01;20.50;;;5.88;;
21233;SDS011;10774;42.178;26.578;2023-09-18T05:08:28;20.20;;;5.97;;
21233;SDS011;10774;42.178;26.578;2023-09-18T05:10:53;24.98;;;6.47;;
21233;SDS011;10774;42.178;26.578;2023-09-18T05:13:19;15.48;;;5.80;;
21233;SDS011;10774;42.178;26.578;2023-09-18T05:15:44;31.98;;;7.25;;
21233;SDS011;10774;42.178;26.578;2023-09-18T05:18:09;14.90;;;5.50;;
21233;SDS011;10774;42.178;26.578;2023-09-18T05:20:35;11.15;;;5.40;;
21233;SDS011;10774;42.178;26.578;2023-09-18T05:23:01;12.60;;;4.80;;
21233;SDS011;10774;42.178;26.578;2023-09-18T05:25:28;11.48;;;4.38;;
21233;SDS011;10774;42.178;26.578;2023-09-18T05:27:56;15.20;;;5.65;;
21233;SDS011;10774;42.178;26.578;2023-09-18T05:30:27;24.67;;;7.97;;
21233;SDS011;10774;42.178;26.578;2023-09-18T05:32:56;19.85;;;9.63;;
21233;SDS011;10774;42.178;26.578;2023-09-18T05:35:21;21.30;;;10.73;;
21233;SDS011;10774;42.178;26.578;2023-09-18T05:37:48;19.75;;;10.88;;
21233;SDS011;10774;42.178;26.578;2023-09-18T05:40:14;18.20;;;10.57;;
21233;SDS011;10774;42.178;26.578;2023-09-18T05:42:40;17.30;;;9.30;;
21233;SDS011;10774;42.178;26.578;2023-09-18T05:45:08;21.05;;;9.52;;
21233;SDS011;10774;42.178;26.578;2023-09-18T05:47:35;16.95;;;7.85;;
21233;SDS011;10774;42.178;26.578;2023-09-18T05:50:10;17.88;;;8.13;;
21233;SDS011;10774;42.178;26.578;2023-09-18T05:52:41;14.43;;;7.82;;
21233;SDS011;10774;42.178;26.578;2023-09-18T05:55:07;17.45;;;7.55;;
21233;SDS011;10774;42.178;26.578;2023-09-18T05:57:33;13.43;;;6.75;;
21233;SDS011;10774;42.178;26.578;2023-09-18T05:59:59;11.77;;;6.28;;
21233;SDS011;10774;42.178;26.578;2023-09-18T06:02:24;8.65;;;6.00;;
21233;SDS011;10774;42.178;26.578;2023-09-18T06:04:56;12.75;;;6.03;;
21233;SDS011;10774;42.178;26.578;2023-09-18T06:07:25;7.28;;;4.60;;
21233;SDS011;10774;42.178;26.578;2023-09-18T06:09:53;9.20;;;4.65;;
21233;SDS011;10774;42.178;26.578;2023-09-18T06:12:18;7.90;;;4.28;;
21233;SDS011;10774;42.178;26.578;2023-09-18T06:14:44;7.35;;;4.15;;
21233;SDS011;10774;42.178;26.578;2023-09-18T06:17:11;6.63;;;4.30;;
21233;SDS011;10774;42.178;26.578;2023-09-18T06:19:37;10.95;;;4.28;;
21233;SDS011;10774;42.178;26.578;2023-09-18T06:22:02;7.30;;;3.60;;
21233;SDS011;10774;42.178;26.578;2023-09-18T06:24:28;6.13;;;3.20;;
21233;SDS011;10774;42.178;26.578;2023-09-18T06:26:54;8.20;;;3.90;;
21233;SDS011;10774;42.178;26.578;2023-09-18T06:29:19;11.15;;;4.15;;
21233;SDS011;10774;42.178;26.578;2023-09-18T06:31:45;9.07;;;3.00;;
21233;SDS011;10774;42.178;26.578;2023-09-18T06:34:12;9.45;;;3.60;;
21233;SDS011;10774;42.178;26.578;2023-09-18T06:36:37;5.82;;;3.75;;
21233;SDS011;10774;42.178;26.578;2023-09-18T06:39:03;5.28;;;3.25;;
21233;SDS011;10774;42.178;26.578;2023-09-18T06:41:28;6.63;;;3.53;;
21233;SDS011;10774;42.178;26.578;2023-09-18T06:43:54;6.60;;;3.40;;
21233;SDS011;10774;42.178;26.578;2023-09-18T06:46:19;7.28;;;3.45;;
21233;SDS011;10774;42.178;26.578;2023-09-18T06:48:44;9.88;;;4.10;;
21233;SDS011;10774;42.178;26.578;2023-09-18T06:51:14;7.15;;;3.15;;
21233;SDS011;10774;42.178;26.578;2023-09-18T06:53:40;6.85;;;3.30;;
21233;SDS011;10774;42.178;26.578;2023-09-18T06:56:05;4.53;;;3.33;;
21233;SDS011;10774;42.178;26.578;2023-09-18T06:58:31;5.32;;;3.35;;
21233;SDS011;10774;42.178;26.578;2023-09-18T07:00:56;5.68;;;3.28;;
21233;SDS011;10774;42.178;26.578;2023-09-18T07:03:22;6.57;;;3.05;;
21233;SDS011;10774;42.178;26.578;2023-09-18T07:05:48;5.68;;;3.33;;
21233;SDS011;10774;42.178;26.578;2023-09-18T07:08:14;3.75;;;3.00;;
21233;SDS011;10774;42.178;26.578;2023-09-18T07:10:41;4.80;;;2.90;;
21233;SDS011;10774;42.178;26.578;2023-09-18T07:13:06;4.82;;;3.15;;
21233;SDS011;10774;42.178;26.578;2023-09-18T07:15:32;6.10;;;3.10;;
21233;SDS011;10774;42.178;26.578;2023-09-18T07:17:57;5.68;;;2.92;;
21233;SDS011;10774;42.178;26.578;2023-09-18T07:20:23;8.40;;;3.00;;
21233;SDS011;10774;42.178;26.578;2023-09-18T07:22:49;6.78;;;3.45;;
21233;SDS011;10774;42.178;26.578;2023-09-18T07:25:15;4.47;;;3.15;;
21233;SDS011;10774;42.178;26.578;2023-09-18T07:27:41;5.60;;;2.88;;
21233;SDS011;10774;42.178;26.578;2023-09-18T07:30:10;4.47;;;3.25;;
21233;SDS011;10774;42.178;26.578;2023-09-18T07:32:36;8.75;;;3.13;;
21233;SDS011;10774;42.178;26.578;2023-09-18T07:35:08;8.18;;;3.25;;
21233;SDS011;10774;42.178;26.578;2023-09-18T07:37:34;5.00;;;3.05;;
21233;SDS011;10774;42.178;26.578;2023-09-18T07:40:01;6.00;;;3.20;;
21233;SDS011;10774;42.178;26.578;2023-09-18T07:42:27;5.07;;;3.35;;
21233;SDS011;10774;42.178;26.578;2023-09-18T07:44:53;9.25;;;3.40;;
21233;SDS011;10774;42.178;26.578;2023-09-18T07:47:18;4.25;;;3.38;;
21233;SDS011;10774;42.178;26.578;2023-09-18T07:49:44;5.80;;;3.33;;
21233;SDS011;10774;42.178;26.578;2023-09-18T07:52:10;4.82;;;3.17;;
21233;SDS011;10774;42.178;26.578;2023-09-18T07:54:35;7.82;;;4.45;;
21233;SDS011;10774;42.178;26.578;2023-09-18T07:57:01;5.82;;;3.53;;
21233;SDS011;10774;42.178;26.578;2023-09-18T07:59:26;7.25;;;4.43;;
21233;SDS011;10774;42.178;26.578;2023-09-18T08:01:52;6.57;;;4.22;;
21233;SDS011;10774;42.178;26.578;2023-09-18T08:04:19;7.55;;;4.43;;
21233;SDS011;10774;42.178;26.578;2023-09-18T08:06:45;9.00;;;4.55;;
21233;SDS011;10774;42.178;26.578;2023-09-18T08:09:11;5.97;;;4.20;;
21233;SDS011;10774;42.178;26.578;2023-09-18T08:11:38;10.73;;;3.88;;
21233;SDS011;10774;42.178;26.578;2023-09-18T08:14:07;7.00;;;3.72;;
21233;SDS011;10774;42.178;26.578;2023-09-18T08:16:32;7.57;;;3.97;;
21233;SDS011;10774;42.178;26.578;2023-09-18T08:18:58;8.20;;;3.97;;
21233;SDS011;10774;42.178;26.578;2023-09-18T08:21:25;6.68;;;3.92;;
21233;SDS011;10774;42.178;26.578;2023-09-18T08:23:54;5.13;;;3.70;;
21233;SDS011;10774;42.178;26.578;2023-09-18T08:26:19;6.82;;;3.80;;
21233;SDS011;10774;42.178;26.578;2023-09-18T08:28:45;6.95;;;3.72;;
21233;SDS011;10774;42.178;26.578;2023-09-18T08:31:11;5.47;;;3.60;;
21233;SDS011;10774;42.178;26.578;2023-09-18T08:33:37;6.60;;;3.60;;
21233;SDS011;10774;42.178;26.578;2023-09-18T08:36:02;5.15;;;3.45;;
21233;SDS011;10774;42.178;26.578;2023-09-18T08:38:28;7.75;;;3.88;;
21233;SDS011;10774;42.178;26.578;2023-09-18T08:40:54;4.72;;;3.50;;
21233;SDS011;10774;42.178;26.578;2023-09-18T08:43:19;4.30;;;3.40;;
21233;SDS011;10774;42.178;26.578;2023-09-18T08:45:48;5.30;;;3.63;;
21233;SDS011;10774;42.178;26.578;2023-09-18T08:48:15;5.90;;;4.05;;
21233;SDS011;10774;42.178;26.578;2023-09-18T08:50:41;6.85;;;3.70;;
21233;SDS011;10774;42.178;26.578;2023-09-18T08:53:07;4.57;;;3.50;;
21233;SDS011;10774;42.178;26.578;2023-09-18T08:55:33;8.38;;;3.35;;
21233;SDS011;10774;42.178;26.578;2023-09-18T08:57:59;6.03;;;3.67;;
21233;SDS011;10774;42.178;26.578;2023-09-18T09:00:26;4.95;;;3.50;;
21233;SDS011;10774;42.178;26.578;2023-09-18T09:02:52;7.05;;;3.35;;
21233;SDS011;10774;42.178;26.578;2023-09-18T09:05:19;5.55;;;3.10;;
21233;SDS011;10774;42.178;26.578;2023-09-18T09:07:46;7.18;;;3.50;;
21233;SDS011;10774;42.178;26.578;2023-09-18T09:10:11;3.70;;;2.63;;
21233;SDS011;10774;42.178;26.578;2023-09-18T09:12:56;4.10;;;2.33;;
21233;SDS011;10774;42.178;26.578;2023-09-18T09:15:26;3.63;;;2.65;;
21233;SDS011;10774;42.178;26.578;2023-09-18T09:18:06;5.70;;;3.50;;
21233;SDS011;10774;42.178;26.578;2023-09-18T09:20:33;4.15;;;3.10;;
21233;SDS011;10774;42.178;26.578;2023-09-18T09:23:01;6.30;;;3.00;;
21233;SDS011;10774;42.178;26.578;2023-09-18T09:25:28;5.75;;;2.92;;
21233;SDS011;10774;42.178;26.578;2023-09-18T09:27:59;7.85;;;3.33;;
21233;SDS011;10774;42.178;26.578;2023-09-18T09:30:26;10.02;;;3.45;;
21233;SDS011;10774;42.178;26.578;2023-09-18T09:32:54;5.32;;;3.58;;
21233;SDS011;10774;42.178;26.578;2023-09-18T09:35:27;8.27;;;3.20;;
21233;SDS011;10774;42.178;26.578;2023-09-18T09:37:58;4.65;;;2.70;;
21233;SDS011;10774;42.178;26.578;2023-09-18T09:40:26;5.97;;;3.17;;
21233;SDS011;10774;42.178;26.578;2023-09-18T09:42:55;5.35;;;3.30;;
21233;SDS011;10774;42.178;26.578;2023-09-18T09:45:30;8.50;;;3.78;;
21233;SDS011;10774;42.178;26.578;2023-09-18T09:48:00;5.03;;;3.97;;
21233;SDS011;10774;42.178;26.578;2023-09-18T09:50:27;7.13;;;4.10;;
21233;SDS011;10774;42.178;26.578;2023-09-18T09:52:53;7.65;;;4.15;;
21233;SDS011;10774;42.178;26.578;2023-09-18T09:57:48;3.75;;;2.72;;
21233;SDS011;10774;42.178;26.578;2023-09-18T10:00:15;3.95;;;3.10;;
21233;SDS011;10774;42.178;26.578;2023-09-18T10:02:55;5.75;;;2.80;;
21233;SDS011;10774;42.178;26.578;2023-09-18T10:05:24;6.00;;;3.08;;
21233;SDS011;10774;42.178;26.578;2023-09-18T10:07:53;4.22;;;3.10;;
21233;SDS011;10774;42.178;26.578;2023-09-18T10:10:23;5.00;;;2.97;;
21233;SDS011;10774;42.178;26.578;2023-09-18T10:12:51;5.97;;;2.95;;
21233;SDS011;10774;42.178;26.578;2023-09-18T10:15:20;5.78;;;3.28;;
21233;SDS011;10774;42.178;26.578;2023-09-18T10:17:48;5.80;;;2.78;;
21233;SDS011;10774;42.178;26.578;2023-09-18T10:20:17;5.30;;;3.15;;
21233;SDS011;10774;42.178;26.578;2023-09-18T10:22:45;5.50;;;3.35;;
21233;SDS011;10774;42.178;26.578;2023-09-18T10:25:15;6.82;;;2.85;;
21233;SDS011;10774;42.178;26.578;2023-09-18T10:27:49;5.25;;;3.00;;
21233;SDS011;10774;42.178;26.578;2023-09-18T10:30:19;5.85;;;3.03;;
21233;SDS011;10774;42.178;26.578;2023-09-18T10:32:48;4.55;;;3.17;;
21233;SDS011;10774;42.178;26.578;2023-09-18T10:35:15;7.20;;;3.10;;
21233;SDS011;10774;42.178;26.578;2023-09-18T10:37:43;10.18;;;2.95;;
21233;SDS011;10774;42.178;26.578;2023-09-18T10:40:11;3.35;;;2.80;;
21233;SDS011;10774;42.178;26.578;2023-09-18T10:42:38;5.18;;;2.95;;
21233;SDS011;10774;42.178;26.578;2023-09-18T10:45:05;9.35;;;3.80;;
21233;SDS011;10774;42.178;26.578;2023-09-18T10:47:35;4.70;;;3.40;;
21233;SDS011;10774;42.178;26.578;2023-09-18T10:50:06;8.20;;;4.18;;
21233;SDS011;10774;42.178;26.578;2023-09-18T10:52:33;6.93;;;3.63;;
21233;SDS011;10774;42.178;26.578;2023-09-18T10:55:00;5.88;;;3.45;;
21233;SDS011;10774;42.178;26.578;2023-09-18T10:57:32;7.18;;;4.05;;
21233;SDS011;10774;42.178;26.578;2023-09-18T11:00:01;10.95;;;3.53;;
21233;SDS011;10774;42.178;26.578;2023-09-18T11:02:34;7.18;;;3.80;;
21233;SDS011;10774;42.178;26.578;2023-09-18T11:04:59;7.95;;;3.85;;
21233;SDS011;10774;42.178;26.578;2023-09-18T11:07:25;5.38;;;3.33;;
21233;SDS011;10774;42.178;26.578;2023-09-18T11:09:50;9.35;;;4.10;;
21233;SDS011;10774;42.178;26.578;2023-09-18T11:12:16;6.80;;;3.42;;
21233;SDS011;10774;42.178;26.578;2023-09-18T11:17:34;8.45;;;3.38;;
21233;SDS011;10774;42.178;26.578;2023-09-18T11:20:23;5.78;;;3.60;;
21233;SDS011;10774;42.178;26.578;2023-09-18T11:25:29;6.03;;;3.28;;
21233;SDS011;10774;42.178;26.578;2023-09-18T11:28:08;7.78;;;3.35;;
21233;SDS011;10774;42.178;26.578;2023-09-18T11:30:38;10.85;;;5.15;;
21233;SDS011;10774;42.178;26.578;2023-09-18T11:33:15;5.55;;;3.60;;
21233;SDS011;10774;42.178;26.578;2023-09-18T11:35:55;8.98;;;4.15;;
21233;SDS011;10774;42.178;26.578;2023-09-18T11:38:21;8.68;;;3.88;;
21233;SDS011;10774;42.178;26.578;2023-09-18T11:40:48;6.28;;;3.47;;
21233;SDS011;10774;42.178;26.578;2023-09-18T11:43:22;6.18;;;3.47;;
21233;SDS011;10774;42.178;26.578;2023-09-18T11:45:57;8.95;;;3.72;;
21233;SDS011;10774;42.178;26.578;2023-09-18T11:48:25;5.45;;;3.10;;
21233;SDS011;10774;42.178;26.578;2023-09-18T11:50:53;4.28;;;2.83;;
21233;SDS011;10774;42.178;26.578;2023-09-18T11:53:19;4.50;;;2.67;;
21233;SDS011;10774;42.178;26.578;2023-09-18T11:55:45;4.72;;;3.03;;
21233;SDS011;10774;42.178;26.578;2023-09-18T11:58:11;4.60;;;2.72;;
21233;SDS011;10774;42.178;26.578;2023-09-18T12:00:38;5.55;;;2.80;;
21233;SDS011;10774;42.178;26.578;2023-09-18T12:03:23;4.25;;;2.75;;
21233;SDS011;10774;42.178;26.578;2023-09-18T12:05:56;6.68;;;2.78;;
21233;SDS011;10774;42.178;26.578;2023-09-18T12:08:25;3.30;;;2.95;;
21233;SDS011;10774;42.178;26.578;2023-09-18T12:10:54;5.57;;;2.28;;
21233;SDS011;10774;42.178;26.578;2023-09-18T12:13:21;3.15;;;2.28;;
21233;SDS011;10774;42.178;26.578;2023-09-18T12:15:49;5.93;;;2.80;;
21233;SDS011;10774;42.178;26.578;2023-09-18T12:18:21;4.45;;;2.47;;
21233;SDS011;10774;42.178;26.578;2023-09-18T12:20:48;6.13;;;2.42;;
21233;SDS011;10774;42.178;26.578;2023-09-18T12:23:14;5.07;;;2.65;;
21233;SDS011;10774;42.178;26.578;2023-09-18T12:25:47;4.88;;;2.83;;
21233;SDS011;10774;42.178;26.578;2023-09-18T12:28:15;5.30;;;2.40;;
21233;SDS011;10774;42.178;26.578;2023-09-18T12:30:41;3.92;;;2.65;;
21233;SDS011;10774;42.178;26.578;2023-09-18T12:33:07;6.57;;;2.20;;
21233;SDS011;10774;42.178;26.578;2023-09-18T12:35:33;8.35;;;3.80;;
21233;SDS011;10774;42.178;26.578;2023-09-18T12:37:59;4.75;;;2.90;;
21233;SDS011;10774;42.178;26.578;2023-09-18T12:42:58;5.05;;;2.90;;
21233;SDS011;10774;42.178;26.578;2023-09-18T12:45:24;4.80;;;2.67;;
21233;SDS011;10774;42.178;26.578;2023-09-18T12:47:51;4.22;;;2.53;;
21233;SDS011;10774;42.178;26.578;2023-09-18T12:50:18;5.75;;;2.63;;
21233;SDS011;10774;42.178;26.578;2023-09-18T12:52:44;6.22;;;2.92;;
21233;SDS011;10774;42.178;26.578;2023-09-18T12:55:25;6.43;;;2.70;;
21233;SDS011;10774;42.178;26.578;2023-09-18T12:57:54;4.65;;;2.22;;
21233;SDS011;10774;42.178;26.578;2023-09-18T13:00:20;6.55;;;2.58;;
21233;SDS011;10774;42.178;26.578;2023-09-18T13:02:51;6.63;;;2.85;;
21233;SDS011;10774;42.178;26.578;2023-09-18T13:05:20;3.80;;;2.30;;
21233;SDS011;10774;42.178;26.578;2023-09-18T13:07:50;3.58;;;2.25;;
21233;SDS011;10774;42.178;26.578;2023-09-18T13:10:18;6.65;;;2.47;;
21233;SDS011;10774;42.178;26.578;2023-09-18T13:12:47;3.67;;;2.08;;
21233;SDS011;10774;42.178;26.578;2023-09-18T13:15:33;5.05;;;2.20;;
21233;SDS011;10774;42.178;26.578;2023-09-18T13:18:00;6.40;;;2.20;;
21233;SDS011;10774;42.178;26.578;2023-09-18T13:20:33;4.57;;;2.42;;
21233;SDS011;10774;42.178;26.578;2023-09-18T13:22:59;3.22;;;2.30;;
21233;SDS011;10774;42.178;26.578;2023-09-18T13:25:28;10.38;;;2.55;;
21233;SDS011;10774;42.178;26.578;2023-09-18T13:27:55;5.80;;;2.30;;
21233;SDS011;10774;42.178;26.578;2023-09-18T13:30:21;4.72;;;2.10;;
21233;SDS011;10774;42.178;26.578;2023-09-18T13:32:47;7.28;;;2.30;;
21233;SDS011;10774;42.178;26.578;2023-09-18T13:35:14;2.65;;;2.08;;
21233;SDS011;10774;42.178;26.578;2023-09-18T13:37:40;7.65;;;2.30;;
21233;SDS011;10774;42.178;26.578;2023-09-18T13:40:06;7.75;;;2.22;;
21233;SDS011;10774;42.178;26.578;2023-09-18T13:42:33;7.53;;;2.53;;
21233;SDS011;10774;42.178;26.578;2023-09-18T13:44:59;3.50;;;1.98;;
21233;SDS011;10774;42.178;26.578;2023-09-18T13:47:26;6.30;;;2.50;;
21233;SDS011;10774;42.178;26.578;2023-09-18T13:49:52;6.93;;;2.00;;
21233;SDS011;10774;42.178;26.578;2023-09-18T13:52:18;10.15;;;2.47;;
21233;SDS011;10774;42.178;26.578;2023-09-18T13:54:46;7.95;;;2.30;;
21233;SDS011;10774;42.178;26.578;2023-09-18T13:57:16;8.65;;;2.10;;
21233;SDS011;10774;42.178;26.578;2023-09-18T13:59:45;3.30;;;1.90;;
21233;SDS011;10774;42.178;26.578;2023-09-18T14:02:12;7.00;;;2.47;;
21233;SDS011;10774;42.178;26.578;2023-09-18T14:04:38;10.57;;;2.60;;
21233;SDS011;10774;42.178;26.578;2023-09-18T14:07:04;2.33;;;1.90;;
21233;SDS011;10774;42.178;26.578;2023-09-18T14:09:31;5.07;;;2.13;;
21233;SDS011;10774;42.178;26.578;2023-09-18T14:11:56;5.38;;;2.45;;
21233;SDS011;10774;42.178;26.578;2023-09-18T14:14:22;6.32;;;2.33;;
21233;SDS011;10774;42.178;26.578;2023-09-18T14:16:48;4.35;;;2.13;;
21233;SDS011;10774;42.178;26.578;2023-09-18T14:19:15;5.75;;;2.13;;
21233;SDS011;10774;42.178;26.578;2023-09-18T14:21:41;3.58;;;2.20;;
21233;SDS011;10774;42.178;26.578;2023-09-18T14:24:07;4.30;;;1.75;;
21233;SDS011;10774;42.178;26.578;2023-09-18T14:26:33;4.38;;;2.00;;
21233;SDS011;10774;42.178;26.578;2023-09-18T14:29:05;4.03;;;1.88;;
21233;SDS011;10774;42.178;26.578;2023-09-18T14:31:34;3.53;;;1.85;;
21233;SDS011;10774;42.178;26.578;2023-09-18T14:34:03;3.35;;;1.73;;
21233;SDS011;10774;42.178;26.578;2023-09-18T14:36:32;5.88;;;2.30;;
21233;SDS011;10774;42.178;26.578;2023-09-18T14:39:01;4.82;;;2.05;;
21233;SDS011;10774;42.178;26.578;2023-09-18T14:41:28;3.85;;;1.70;;
21233;SDS011;10774;42.178;26.578;2023-09-18T14:43:54;9.95;;;2.53;;
21233;SDS011;10774;42.178;26.578;2023-09-18T14:46:22;7.20;;;2.30;;
21233;SDS011;10774;42.178;26.578;2023-09-18T14:48:47;9.82;;;2.00;;
21233;SDS011;10774;42.178;26.578;2023-09-18T14:51:13;6.47;;;1.80;;